sensor_id;sensor_type;location;lat;lon;timestamp;pressure;altitude;pressure_sealevel;temperature;humidity
36222;BME280;22266;52.340;4.962;2023-03-14T00:00:17;98748.44;;;11.05;68.46
36222;BME280;22266;52.340;4.962;2023-03-14T00:02:44;98736.84;;;11.05;68.74
36222;BME280;22266;52.340;4.962;2023-03-14T00:05:10;98753.81;;;11.05;69.04
36222;BME280;22266;52.340;4.962;2023-03-14T00:07:38;98757.84;;;11.03;69.41
36222;BME280;22266;52.340;4.962;2023-03-14T00:10:08;98756.75;;;11.04;69.35
36222;BME280;22266;52.340;4.962;2023-03-14T00:12:35;98752.84;;;11.11;69.40
36222;BME280;22266;52.340;4.962;2023-03-14T00:15:02;98758.78;;;11.13;69.25
36222;BME280;22266;52.340;4.962;2023-03-14T00:17:30;98748.53;;;11.10;69.54
36222;BME280;22266;52.340;4.962;2023-03-14T00:19:57;98746.97;;;11.14;69.34
36222;BME280;22266;52.340;4.962;2023-03-14T00:22:23;98744.75;;;11.11;69.22
36222;BME280;22266;52.340;4.962;2023-03-14T00:24:50;98757.91;;;11.08;69.65
36222;BME280;22266;52.340;4.962;2023-03-14T00:27:16;98745.56;;;11.12;69.73
36222;BME280;22266;52.340;4.962;2023-03-14T00:29:43;98744.59;;;11.18;69.78
36222;BME280;22266;52.340;4.962;2023-03-14T00:32:10;98741.63;;;11.20;69.92
36222;BME280;22266;52.340;4.962;2023-03-14T00:34:39;98733.28;;;10.99;69.72
36222;BME280;22266;52.340;4.962;2023-03-14T00:37:06;98734.84;;;10.95;70.40
36222;BME280;22266;52.340;4.962;2023-03-14T00:39:32;98734.84;;;10.95;70.19
36222;BME280;22266;52.340;4.962;2023-03-14T00:41:58;98741.38;;;10.99;70.40
36222;BME280;22266;52.340;4.962;2023-03-14T00:44:26;98736.16;;;10.93;70.17
36222;BME280;22266;52.340;4.962;2023-03-14T00:46:52;98727.31;;;10.97;70.00
36222;BME280;22266;52.340;4.962;2023-03-14T00:49:19;98738.28;;;10.91;70.27
36222;BME280;22266;52.340;4.962;2023-03-14T00:51:46;98742.09;;;10.95;70.49
36222;BME280;22266;52.340;4.962;2023-03-14T00:54:12;98739.09;;;10.91;70.25
36222;BME280;22266;52.340;4.962;2023-03-14T00:56:39;98745.63;;;10.95;70.10
36222;BME280;22266;52.340;4.962;2023-03-14T00:59:06;98737.84;;;10.99;70.28
36222;BME280;22266;52.340;4.962;2023-03-14T01:01:32;98729.41;;;10.90;69.88
36222;BME280;22266;52.340;4.962;2023-03-14T01:03:59;98733.13;;;10.89;70.38
36222;BME280;22266;52.340;4.962;2023-03-14T01:06:27;98742.34;;;10.93;70.52
36222;BME280;22266;52.340;4.962;2023-03-14T01:08:55;98747.97;;;10.92;70.49
36222;BME280;22266;52.340;4.962;2023-03-14T01:11:27;98754.66;;;10.89;70.57
36222;BME280;22266;52.340;4.962;2023-03-14T01:13:57;98749.78;;;10.86;70.86
36222;BME280;22266;52.340;4.962;2023-03-14T01:16:25;98747.91;;;10.86;70.51
36222;BME280;22266;52.340;4.962;2023-03-14T01:18:53;98742.63;;;10.75;71.17
36222;BME280;22266;52.340;4.962;2023-03-14T01:21:23;98736.91;;;10.71;71.56
36222;BME280;22266;52.340;4.962;2023-03-14T01:23:51;98739.44;;;10.78;71.71
36222;BME280;22266;52.340;4.962;2023-03-14T01:26:20;98734.56;;;10.75;72.26
36222;BME280;22266;52.340;4.962;2023-03-14T01:28:48;98730.47;;;10.72;71.91
36222;BME280;22266;52.340;4.962;2023-03-14T01:31:17;98739.75;;;10.81;72.40
36222;BME280;22266;52.340;4.962;2023-03-14T01:33:45;98740.81;;;10.80;72.43
36222;BME280;22266;52.340;4.962;2023-03-14T01:36:12;98738.13;;;10.80;72.47
36222;BME280;22266;52.340;4.962;2023-03-14T01:38:41;98749.97;;;10.79;72.53
36222;BME280;22266;52.340;4.962;2023-03-14T01:41:20;98748.50;;;10.72;72.61
36222;BME280;22266;52.340;4.962;2023-03-14T01:43:47;98739.03;;;10.69;73.16
36222;BME280;22266;52.340;4.962;2023-03-14T01:46:20;98734.38;;;10.64;73.63
36222;BME280;22266;52.340;4.962;2023-03-14T01:53:48;98731.63;;;10.59;74.06
36222;BME280;22266;52.340;4.962;2023-03-14T01:56:17;98731.38;;;10.61;74.25
36222;BME280;22266;52.340;4.962;2023-03-14T01:58:48;98724.03;;;10.56;73.63
36222;BME280;22266;52.340;4.962;2023-03-14T02:01:19;98727.97;;;10.49;74.35
36222;BME280;22266;52.340;4.962;2023-03-14T02:03:53;98718.03;;;10.49;74.17
36222;BME280;22266;52.340;4.962;2023-03-14T02:06:25;98720.22;;;10.52;74.34
36222;BME280;22266;52.340;4.962;2023-03-14T02:08:56;98711.91;;;10.54;74.19
36222;BME280;22266;52.340;4.962;2023-03-14T02:11:28;98709.78;;;10.56;74.42
36222;BME280;22266;52.340;4.962;2023-03-14T02:14:04;98708.66;;;10.52;74.44
36222;BME280;22266;52.340;4.962;2023-03-14T02:16:51;98715.66;;;10.53;74.19
36222;BME280;22266;52.340;4.962;2023-03-14T02:22:40;98705.47;;;10.55;74.43
36222;BME280;22266;52.340;4.962;2023-03-14T02:28:00;98711.19;;;10.58;75.09
36222;BME280;22266;52.340;4.962;2023-03-14T02:30:29;98703.34;;;10.57;75.12
36222;BME280;22266;52.340;4.962;2023-03-14T02:33:01;98701.56;;;10.62;75.62
36222;BME280;22266;52.340;4.962;2023-03-14T02:35:40;98697.41;;;10.55;75.19
36222;BME280;22266;52.340;4.962;2023-03-14T02:38:24;98704.34;;;10.51;75.54
36222;BME280;22266;52.340;4.962;2023-03-14T02:40:54;98692.69;;;10.45;75.88
36222;BME280;22266;52.340;4.962;2023-03-14T02:43:21;98692.19;;;10.48;75.84
36222;BME280;22266;52.340;4.962;2023-03-14T02:45:54;98698.88;;;10.46;75.90
36222;BME280;22266;52.340;4.962;2023-03-14T02:48:36;98685.53;;;10.34;76.37
36222;BME280;22266;52.340;4.962;2023-03-14T02:51:04;98682.31;;;10.37;76.95
36222;BME280;22266;52.340;4.962;2023-03-14T02:53:35;98689.16;;;10.45;76.80
36222;BME280;22266;52.340;4.962;2023-03-14T02:56:08;98683.06;;;10.49;76.34
36222;BME280;22266;52.340;4.962;2023-03-14T02:58:36;98686.16;;;10.41;76.42
36222;BME280;22266;52.340;4.962;2023-03-14T03:01:21;98678.59;;;10.38;76.74
36222;BME280;22266;52.340;4.962;2023-03-14T03:03:48;98689.41;;;10.43;76.34
36222;BME280;22266;52.340;4.962;2023-03-14T03:06:14;98669.13;;;10.35;75.80
36222;BME280;22266;52.340;4.962;2023-03-14T03:08:41;98678.91;;;10.42;76.33
36222;BME280;22266;52.340;4.962;2023-03-14T03:11:08;98675.31;;;10.36;75.76
36222;BME280;22266;52.340;4.962;2023-03-14T03:13:34;98681.94;;;10.28;75.82
36222;BME280;22266;52.340;4.962;2023-03-14T03:16:03;98673.97;;;10.33;76.45
36222;BME280;22266;52.340;4.962;2023-03-14T03:18:30;98665.97;;;10.38;75.80
36222;BME280;22266;52.340;4.962;2023-03-14T03:21:02;98668.06;;;10.36;75.57
36222;BME280;22266;52.340;4.962;2023-03-14T03:23:29;98671.81;;;10.35;75.49
36222;BME280;22266;52.340;4.962;2023-03-14T03:25:57;98657.63;;;10.40;75.60
36222;BME280;22266;52.340;4.962;2023-03-14T03:28:23;98658.75;;;10.44;75.03
36222;BME280;22266;52.340;4.962;2023-03-14T03:30:51;98658.22;;;10.42;75.08
36222;BME280;22266;52.340;4.962;2023-03-14T03:33:17;98657.81;;;10.33;74.88
36222;BME280;22266;52.340;4.962;2023-03-14T03:35:46;98655.69;;;10.35;74.98
36222;BME280;22266;52.340;4.962;2023-03-14T03:38:16;98647.94;;;10.39;75.37
36222;BME280;22266;52.340;4.962;2023-03-14T03:40:44;98652.75;;;10.37;74.86
36222;BME280;22266;52.340;4.962;2023-03-14T03:43:11;98652.75;;;10.37;75.33
36222;BME280;22266;52.340;4.962;2023-03-14T03:45:41;98651.13;;;10.36;75.29
36222;BME280;22266;52.340;4.962;2023-03-14T03:48:08;98653.88;;;10.41;75.18
36222;BME280;22266;52.340;4.962;2023-03-14T03:50:34;98656.56;;;10.41;75.23
36222;BME280;22266;52.340;4.962;2023-03-14T03:53:01;98655.03;;;10.45;75.52
36222;BME280;22266;52.340;4.962;2023-03-14T03:55:28;98650.69;;;10.44;75.34
36222;BME280;22266;52.340;4.962;2023-03-14T03:57:55;98651.50;;;10.45;74.83
36222;BME280;22266;52.340;4.962;2023-03-14T04:00:21;98658.22;;;10.42;75.24
36222;BME280;22266;52.340;4.962;2023-03-14T04:02:48;98660.31;;;10.40;74.96
36222;BME280;22266;52.340;4.962;2023-03-14T04:05:16;98669.31;;;10.46;75.40
36222;BME280;22266;52.340;4.962;2023-03-14T04:07:52;98660.97;;;10.47;75.45
36222;BME280;22266;52.340;4.962;2023-03-14T04:10:23;98658.03;;;10.49;75.60
36222;BME280;22266;52.340;4.962;2023-03-14T04:13:15;98667.16;;;10.48;75.39
36222;BME280;22266;52.340;4.962;2023-03-14T04:15:47;98665.69;;;10.40;76.11
36222;BME280;22266;52.340;4.962;2023-03-14T04:18:20;98669.72;;;10.37;76.15
36222;BME280;22266;52.340;4.962;2023-03-14T04:20:54;98669.72;;;10.37;75.86
36222;BME280;22266;52.340;4.962;2023-03-14T04:23:25;98669.47;;;10.39;76.19
36222;BME280;22266;52.340;4.962;2023-03-14T04:25:53;98674.25;;;10.37;76.37
36222;BME280;22266;52.340;4.962;2023-03-14T04:28:21;98671.75;;;10.30;76.67
36222;BME280;22266;52.340;4.962;2023-03-14T04:30:48;98688.81;;;10.24;77.60
36222;BME280;22266;52.340;4.962;2023-03-14T04:33:19;98678.25;;;10.18;78.63
36222;BME280;22266;52.340;4.962;2023-03-14T04:35:53;98678.00;;;10.19;79.59
36222;BME280;22266;52.340;4.962;2023-03-14T04:38:21;98683.38;;;10.19;79.64
36222;BME280;22266;52.340;4.962;2023-03-14T04:40:48;98673.69;;;10.18;79.65
36222;BME280;22266;52.340;4.962;2023-03-14T04:43:17;98659.66;;;10.16;79.87
36222;BME280;22266;52.340;4.962;2023-03-14T04:45:49;98678.47;;;10.16;80.52
36222;BME280;22266;52.340;4.962;2023-03-14T04:48:16;98660.25;;;10.18;81.03
36222;BME280;22266;52.340;4.962;2023-03-14T04:50:43;98659.03;;;10.09;80.76
36222;BME280;22266;52.340;4.962;2023-03-14T04:53:09;98661.63;;;10.04;80.97
36222;BME280;22266;52.340;4.962;2023-03-14T04:55:36;98663.97;;;10.00;81.26
36222;BME280;22266;52.340;4.962;2023-03-14T04:58:03;98662.81;;;9.96;81.56
36222;BME280;22266;52.340;4.962;2023-03-14T05:00:30;98659.66;;;9.99;82.17
36222;BME280;22266;52.340;4.962;2023-03-14T05:03:07;98649.16;;;9.98;82.00
36222;BME280;22266;52.340;4.962;2023-03-14T05:05:47;98650.78;;;9.99;82.10
36222;BME280;22266;52.340;4.962;2023-03-14T05:08:39;98649.97;;;9.98;82.33
36222;BME280;22266;52.340;4.962;2023-03-14T05:11:22;98653.16;;;9.95;82.10
36222;BME280;22266;52.340;4.962;2023-03-14T05:13:59;98649.31;;;9.91;82.88
36222;BME280;22266;52.340;4.962;2023-03-14T05:16:40;98646.16;;;9.94;82.60
36222;BME280;22266;52.340;4.962;2023-03-14T05:19:22;98646.06;;;9.89;82.85
36222;BME280;22266;52.340;4.962;2023-03-14T05:22:10;98642.38;;;9.78;83.20
36222;BME280;22266;52.340;4.962;2023-03-14T05:24:53;98646.38;;;9.76;83.18
36222;BME280;22266;52.340;4.962;2023-03-14T05:27:31;98646.38;;;9.76;83.67
36222;BME280;22266;52.340;4.962;2023-03-14T05:30:16;98648.56;;;9.79;84.16
36222;BME280;22266;52.340;4.962;2023-03-14T05:33:06;98656.16;;;9.82;83.97
36222;BME280;22266;52.340;4.962;2023-03-14T05:35:43;98660.38;;;9.78;84.02
36222;BME280;22266;52.340;4.962;2023-03-14T05:38:19;98670.88;;;9.79;83.83
36222;BME280;22266;52.340;4.962;2023-03-14T05:41:18;98675.09;;;9.75;84.39
36222;BME280;22266;52.340;4.962;2023-03-14T05:44:13;98686.91;;;9.74;84.40
36222;BME280;22266;52.340;4.962;2023-03-14T05:46:55;98695.44;;;9.71;84.62
36222;BME280;22266;52.340;4.962;2023-03-14T05:49:48;98713.91;;;9.68;84.71
36222;BME280;22266;52.340;4.962;2023-03-14T05:52:33;98723.81;;;9.50;83.59
36222;BME280;22266;52.340;4.962;2023-03-14T05:55:02;98726.06;;;9.41;84.03
36222;BME280;22266;52.340;4.962;2023-03-14T05:57:53;98739.13;;;9.38;83.71
36222;BME280;22266;52.340;4.962;2023-03-14T06:00:43;98736.72;;;9.36;83.29
36222;BME280;22266;52.340;4.962;2023-03-14T06:03:29;98756.44;;;9.30;82.68
36222;BME280;22266;52.340;4.962;2023-03-14T06:05:56;98761.97;;;9.24;82.08
36222;BME280;22266;52.340;4.962;2023-03-14T06:08:23;98761.81;;;9.19;83.34
36222;BME280;22266;52.340;4.962;2023-03-14T06:10:51;98768.59;;;9.21;83.09
36222;BME280;22266;52.340;4.962;2023-03-14T06:13:22;98774.44;;;9.18;82.35
36222;BME280;22266;52.340;4.962;2023-03-14T06:15:49;98783.66;;;9.10;82.76
36222;BME280;22266;52.340;4.962;2023-03-14T06:18:15;98789.84;;;9.11;82.83
36222;BME280;22266;52.340;4.962;2023-03-14T06:20:42;98785.88;;;9.02;82.40
36222;BME280;22266;52.340;4.962;2023-03-14T06:23:12;98795.34;;;9.04;82.89
36222;BME280;22266;52.340;4.962;2023-03-14T06:25:40;98796.16;;;9.05;83.02
36222;BME280;22266;52.340;4.962;2023-03-14T06:28:06;98799.75;;;8.99;81.55
36222;BME280;22266;52.340;4.962;2023-03-14T06:30:34;98822.28;;;8.86;81.49
36222;BME280;22266;52.340;4.962;2023-03-14T06:33:01;98828.34;;;8.81;82.07
36222;BME280;22266;52.340;4.962;2023-03-14T06:35:28;98840.94;;;8.69;81.58
36222;BME280;22266;52.340;4.962;2023-03-14T06:37:55;98847.22;;;8.63;82.11
36222;BME280;22266;52.340;4.962;2023-03-14T06:40:21;98855.94;;;8.58;81.90
36222;BME280;22266;52.340;4.962;2023-03-14T06:42:56;98862.81;;;8.54;81.49
36222;BME280;22266;52.340;4.962;2023-03-14T06:45:24;98874.22;;;8.50;82.19
36222;BME280;22266;52.340;4.962;2023-03-14T06:47:52;98884.25;;;8.54;81.52
36222;BME280;22266;52.340;4.962;2023-03-14T06:50:23;98885.94;;;8.55;82.03
36222;BME280;22266;52.340;4.962;2023-03-14T06:52:50;98892.91;;;8.56;81.22
36222;BME280;22266;52.340;4.962;2023-03-14T06:55:20;98897.91;;;8.53;81.88
36222;BME280;22266;52.340;4.962;2023-03-14T06:57:48;98914.63;;;8.55;81.15
36222;BME280;22266;52.340;4.962;2023-03-14T07:00:16;98912.38;;;8.52;81.53
36222;BME280;22266;52.340;4.962;2023-03-14T07:02:43;98918.44;;;8.47;81.40
36222;BME280;22266;52.340;4.962;2023-03-14T07:05:25;98927.50;;;8.46;80.86
36222;BME280;22266;52.340;4.962;2023-03-14T07:07:52;98939.59;;;8.37;80.31
36222;BME280;22266;52.340;4.962;2023-03-14T07:10:18;98947.34;;;8.27;80.35
36222;BME280;22266;52.340;4.962;2023-03-14T07:12:45;98968.31;;;8.30;80.60
36222;BME280;22266;52.340;4.962;2023-03-14T07:15:11;98981.44;;;8.38;80.90
36222;BME280;22266;52.340;4.962;2023-03-14T07:17:46;98987.41;;;8.40;80.42
36222;BME280;22266;52.340;4.962;2023-03-14T07:20:14;98992.16;;;8.38;80.78
36222;BME280;22266;52.340;4.962;2023-03-14T07:22:41;99002.88;;;8.38;79.84
36222;BME280;22266;52.340;4.962;2023-03-14T07:25:08;99024.59;;;8.30;79.68
36222;BME280;22266;52.340;4.962;2023-03-14T07:27:38;99037.88;;;8.06;78.49
36222;BME280;22266;52.340;4.962;2023-03-14T07:30:04;99070.78;;;7.88;79.55
36222;BME280;22266;52.340;4.962;2023-03-14T07:32:32;99082.19;;;7.59;80.08
36222;BME280;22266;52.340;4.962;2023-03-14T07:34:58;99098.16;;;7.40;80.52
36222;BME280;22266;52.340;4.962;2023-03-14T07:37:25;99110.41;;;7.30;79.62
36222;BME280;22266;52.340;4.962;2023-03-14T07:39:51;99132.66;;;7.17;79.11
36222;BME280;22266;52.340;4.962;2023-03-14T07:42:22;99139.53;;;7.06;80.03
36222;BME280;22266;52.340;4.962;2023-03-14T07:45:10;99145.56;;;6.95;79.46
36222;BME280;22266;52.340;4.962;2023-03-14T07:47:37;99164.69;;;6.92;79.78
36222;BME280;22266;52.340;4.962;2023-03-14T07:50:05;99166.53;;;6.91;79.56
36222;BME280;22266;52.340;4.962;2023-03-14T07:52:31;99176.44;;;6.84;79.21
36222;BME280;22266;52.340;4.962;2023-03-14T07:54:58;99188.59;;;6.87;80.13
36222;BME280;22266;52.340;4.962;2023-03-14T07:57:24;99197.81;;;6.91;79.93
36222;BME280;22266;52.340;4.962;2023-03-14T07:59:50;99204.81;;;6.99;80.94
36222;BME280;22266;52.340;4.962;2023-03-14T08:02:17;99218.41;;;6.90;79.14
36222;BME280;22266;52.340;4.962;2023-03-14T08:04:46;99221.91;;;6.84;79.20
36222;BME280;22266;52.340;4.962;2023-03-14T08:07:12;99236.72;;;6.80;79.36
36222;BME280;22266;52.340;4.962;2023-03-14T08:09:39;99245.16;;;6.84;80.25
36222;BME280;22266;52.340;4.962;2023-03-14T08:12:06;99252.94;;;6.99;80.45
36222;BME280;22266;52.340;4.962;2023-03-14T08:14:32;99270.63;;;7.00;78.40
36222;BME280;22266;52.340;4.962;2023-03-14T08:16:58;99279.25;;;7.08;79.60
36222;BME280;22266;52.340;4.962;2023-03-14T08:19:25;99293.06;;;7.05;78.35
36222;BME280;22266;52.340;4.962;2023-03-14T08:21:51;99299.25;;;6.92;76.75
36222;BME280;22266;52.340;4.962;2023-03-14T08:24:18;99306.69;;;6.90;77.32
36222;BME280;22266;52.340;4.962;2023-03-14T08:26:44;99313.06;;;6.89;77.47
36222;BME280;22266;52.340;4.962;2023-03-14T08:29:11;99330.34;;;6.93;77.65
36222;BME280;22266;52.340;4.962;2023-03-14T08:31:38;99328.91;;;6.91;77.06
36222;BME280;22266;52.340;4.962;2023-03-14T08:34:05;99338.34;;;7.07;77.42
36222;BME280;22266;52.340;4.962;2023-03-14T08:36:33;99349.22;;;7.25;77.86
36222;BME280;22266;52.340;4.962;2023-03-14T08:39:00;99360.72;;;7.39;76.46
36222;BME280;22266;52.340;4.962;2023-03-14T08:41:26;99383.13;;;7.44;75.87
36222;BME280;22266;52.340;4.962;2023-03-14T08:43:53;99382.97;;;7.26;74.21
36222;BME280;22266;52.340;4.962;2023-03-14T08:46:19;99398.00;;;7.21;74.92
36222;BME280;22266;52.340;4.962;2023-03-14T08:48:46;99408.50;;;7.29;74.91
36222;BME280;22266;52.340;4.962;2023-03-14T08:51:13;99414.25;;;7.32;74.46
36222;BME280;22266;52.340;4.962;2023-03-14T08:53:41;99425.19;;;7.24;74.08
36222;BME280;22266;52.340;4.962;2023-03-14T08:56:08;99435.91;;;7.17;72.88
36222;BME280;22266;52.340;4.962;2023-03-14T08:58:37;99444.34;;;7.21;73.43
36222;BME280;22266;52.340;4.962;2023-03-14T09:01:08;99443.72;;;7.12;72.73
36222;BME280;22266;52.340;4.962;2023-03-14T09:03:35;99469.66;;;7.05;71.97
36222;BME280;22266;52.340;4.962;2023-03-14T09:06:07;99469.47;;;7.13;72.71
36222;BME280;22266;52.340;4.962;2023-03-14T09:08:35;99474.19;;;7.18;72.46
36222;BME280;22266;52.340;4.962;2023-03-14T09:11:07;99491.69;;;7.27;72.57
36222;BME280;22266;52.340;4.962;2023-03-14T09:13:34;99490.03;;;7.26;71.71
36222;BME280;22266;52.340;4.962;2023-03-14T09:16:01;99506.53;;;7.30;71.91
36222;BME280;22266;52.340;4.962;2023-03-14T09:18:27;99508.38;;;7.42;72.46
36222;BME280;22266;52.340;4.962;2023-03-14T09:20:55;99517.22;;;7.50;72.27
36222;BME280;22266;52.340;4.962;2023-03-14T09:23:22;99519.28;;;7.34;70.34
36222;BME280;22266;52.340;4.962;2023-03-14T09:25:48;99532.66;;;7.28;71.46
36222;BME280;22266;52.340;4.962;2023-03-14T09:28:15;99556.75;;;7.28;71.79
36222;BME280;22266;52.340;4.962;2023-03-14T09:30:41;99552.63;;;7.18;71.55
36222;BME280;22266;52.340;4.962;2023-03-14T09:33:08;99570.09;;;7.08;72.16
36222;BME280;22266;52.340;4.962;2023-03-14T09:35:34;99583.06;;;7.11;73.11
36222;BME280;22266;52.340;4.962;2023-03-14T09:38:01;99606.97;;;7.19;71.97
36222;BME280;22266;52.340;4.962;2023-03-14T09:40:32;99616.78;;;6.99;71.15
36222;BME280;22266;52.340;4.962;2023-03-14T09:43:00;99620.72;;;7.03;71.15
36222;BME280;22266;52.340;4.962;2023-03-14T09:45:29;99622.34;;;7.04;71.87
36222;BME280;22266;52.340;4.962;2023-03-14T09:47:58;99633.09;;;7.17;72.87
36222;BME280;22266;52.340;4.962;2023-03-14T09:50:27;99638.69;;;7.22;72.56
36222;BME280;22266;52.340;4.962;2023-03-14T09:53:02;99647.34;;;7.31;72.34
36222;BME280;22266;52.340;4.962;2023-03-14T09:55:29;99648.34;;;7.23;71.29
36222;BME280;22266;52.340;4.962;2023-03-14T09:58:00;99649.38;;;7.22;71.15
36222;BME280;22266;52.340;4.962;2023-03-14T10:00:30;99657.25;;;7.30;70.69
36222;BME280;22266;52.340;4.962;2023-03-14T10:05:41;99675.59;;;7.53;70.40
36222;BME280;22266;52.340;4.962;2023-03-14T10:08:12;99677.69;;;7.58;70.76
36222;BME280;22266;52.340;4.962;2023-03-14T10:10:39;99687.78;;;7.56;70.33
36222;BME280;22266;52.340;4.962;2023-03-14T10:13:21;99696.66;;;7.63;69.89
36222;BME280;22266;52.340;4.962;2023-03-14T10:18:23;99737.03;;;7.07;65.47
36222;BME280;22266;52.340;4.962;2023-03-14T10:23:32;99758.09;;;7.23;67.25
36222;BME280;22266;52.340;4.962;2023-03-14T10:26:12;99749.91;;;7.31;66.15
36222;BME280;22266;52.340;4.962;2023-03-14T10:28:47;99763.75;;;7.41;65.65
36222;BME280;22266;52.340;4.962;2023-03-14T10:31:14;99777.78;;;7.50;65.42
36222;BME280;22266;52.340;4.962;2023-03-14T10:33:41;99778.81;;;7.56;65.14
36222;BME280;22266;52.340;4.962;2023-03-14T10:38:42;99804.22;;;7.66;61.98
36222;BME280;22266;52.340;4.962;2023-03-14T10:41:24;99822.97;;;7.66;60.08
36222;BME280;22266;52.340;4.962;2023-03-14T10:43:57;99823.44;;;7.83;59.69
36222;BME280;22266;52.340;4.962;2023-03-14T10:46:29;99824.72;;;8.07;60.07
36222;BME280;22266;52.340;4.962;2023-03-14T10:49:27;99835.88;;;8.24;58.31
36222;BME280;22266;52.340;4.962;2023-03-14T10:51:54;99861.25;;;8.28;58.62
36222;BME280;22266;52.340;4.962;2023-03-14T10:54:22;99858.78;;;8.20;57.96
36222;BME280;22266;52.340;4.962;2023-03-14T10:57:00;99872.78;;;8.22;56.63
36222;BME280;22266;52.340;4.962;2023-03-14T10:59:35;99879.41;;;8.33;56.30
36222;BME280;22266;52.340;4.962;2023-03-14T11:04:56;99904.44;;;8.47;55.53
36222;BME280;22266;52.340;4.962;2023-03-14T11:07:38;99914.75;;;8.50;54.16
36222;BME280;22266;52.340;4.962;2023-03-14T11:13:05;99929.66;;;8.59;54.67
36222;BME280;22266;52.340;4.962;2023-03-14T11:15:38;99934.63;;;8.75;52.15
36222;BME280;22266;52.340;4.962;2023-03-14T11:21:13;99953.00;;;8.85;51.63
36222;BME280;22266;52.340;4.962;2023-03-14T11:24:08;99957.16;;;8.87;50.61
36222;BME280;22266;52.340;4.962;2023-03-14T11:29:29;99983.31;;;8.72;48.11
36222;BME280;22266;52.340;4.962;2023-03-14T11:32:02;99992.84;;;8.81;50.01
36222;BME280;22266;52.340;4.962;2023-03-14T11:34:53;99995.94;;;8.85;50.10
36222;BME280;22266;52.340;4.962;2023-03-14T11:37:41;100005.66;;;8.99;49.59
36222;BME280;22266;52.340;4.962;2023-03-14T11:42:38;100004.84;;;9.05;47.76
36222;BME280;22266;52.340;4.962;2023-03-14T11:45:16;100033.56;;;9.05;47.86
36222;BME280;22266;52.340;4.962;2023-03-14T11:47:53;100037.09;;;9.12;48.57
36222;BME280;22266;52.340;4.962;2023-03-14T11:50:24;100048.38;;;8.94;47.89
36222;BME280;22266;52.340;4.962;2023-03-14T11:53:13;100045.88;;;8.86;46.28
36222;BME280;22266;52.340;4.962;2023-03-14T11:55:42;100053.34;;;8.90;47.15
36222;BME280;22266;52.340;4.962;2023-03-14T11:58:15;100070.00;;;8.73;47.41
36222;BME280;22266;52.340;4.962;2023-03-14T12:00:47;100075.81;;;8.76;46.06
36222;BME280;22266;52.340;4.962;2023-03-14T12:08:50;100087.22;;;8.91;47.31
36222;BME280;22266;52.340;4.962;2023-03-14T12:11:33;100100.03;;;8.96;46.88
36222;BME280;22266;52.340;4.962;2023-03-14T12:14:02;100101.28;;;9.00;45.81
36222;BME280;22266;52.340;4.962;2023-03-14T12:16:35;100108.03;;;8.89;46.35
36222;BME280;22266;52.340;4.962;2023-03-14T12:21:51;100125.44;;;9.00;43.95
36222;BME280;22266;52.340;4.962;2023-03-14T12:24:23;100127.06;;;8.95;43.48
36222;BME280;22266;52.340;4.962;2023-03-14T12:26:54;100129.56;;;9.03;44.58
36222;BME280;22266;52.340;4.962;2023-03-14T12:29:21;100128.34;;;9.05;43.49
36222;BME280;22266;52.340;4.962;2023-03-14T12:31:49;100141.38;;;9.08;43.18
36222;BME280;22266;52.340;4.962;2023-03-14T12:42:09;100162.38;;;8.91;43.50
36222;BME280;22266;52.340;4.962;2023-03-14T12:44:47;100168.13;;;8.95;42.64
36222;BME280;22266;52.340;4.962;2023-03-14T12:49:48;100170.91;;;9.08;44.69
36222;BME280;22266;52.340;4.962;2023-03-14T12:52:21;100181.13;;;8.85;43.33
36222;BME280;22266;52.340;4.962;2023-03-14T12:55:06;100184.19;;;8.75;44.40
36222;BME280;22266;52.340;4.962;2023-03-14T12:57:42;100182.66;;;8.66;44.89
36222;BME280;22266;52.340;4.962;2023-03-14T13:00:39;100190.44;;;8.54;45.95
36222;BME280;22266;52.340;4.962;2023-03-14T13:03:18;100196.97;;;8.45;47.31
36222;BME280;22266;52.340;4.962;2023-03-14T13:05:57;100206.53;;;8.54;46.03
36222;BME280;22266;52.340;4.962;2023-03-14T13:08:38;100206.69;;;8.81;46.50
36222;BME280;22266;52.340;4.962;2023-03-14T13:11:10;100215.88;;;9.00;47.31
36222;BME280;22266;52.340;4.962;2023-03-14T13:13:44;100227.13;;;9.23;47.01
36222;BME280;22266;52.340;4.962;2023-03-14T13:16:17;100241.16;;;9.19;45.24
36222;BME280;22266;52.340;4.962;2023-03-14T13:18:50;100242.09;;;8.98;45.82
36222;BME280;22266;52.340;4.962;2023-03-14T13:21:20;100246.06;;;8.74;45.38
36222;BME280;22266;52.340;4.962;2023-03-14T13:26:32;100264.53;;;8.55;46.70
36222;BME280;22266;52.340;4.962;2023-03-14T13:29:11;100274.00;;;8.51;45.48
36222;BME280;22266;52.340;4.962;2023-03-14T13:31:44;100279.69;;;8.41;43.94
36222;BME280;22266;52.340;4.962;2023-03-14T13:34:11;100285.53;;;8.30;43.90
36222;BME280;22266;52.340;4.962;2023-03-14T13:36:38;100285.16;;;8.33;42.31
36222;BME280;22266;52.340;4.962;2023-03-14T13:39:10;100291.94;;;8.51;43.28
36222;BME280;22266;52.340;4.962;2023-03-14T13:41:40;100314.69;;;8.55;41.91
36222;BME280;22266;52.340;4.962;2023-03-14T13:44:09;100320.94;;;8.40;41.14
36222;BME280;22266;52.340;4.962;2023-03-14T13:46:40;100316.94;;;8.36;42.99
36222;BME280;22266;52.340;4.962;2023-03-14T13:49:12;100322.97;;;8.38;41.37
36222;BME280;22266;52.340;4.962;2023-03-14T13:51:43;100321.56;;;8.42;42.32
36222;BME280;22266;52.340;4.962;2023-03-14T13:54:17;100333.56;;;8.47;41.18
36222;BME280;22266;52.340;4.962;2023-03-14T13:56:45;100344.25;;;8.40;42.94
36222;BME280;22266;52.340;4.962;2023-03-14T13:59:25;100338.06;;;8.39;42.96
36222;BME280;22266;52.340;4.962;2023-03-14T14:01:58;100348.78;;;8.39;42.48
36222;BME280;22266;52.340;4.962;2023-03-14T14:04:26;100355.53;;;8.35;42.39
36222;BME280;22266;52.340;4.962;2023-03-14T14:07:00;100360.63;;;8.30;42.91
36222;BME280;22266;52.340;4.962;2023-03-14T14:09:29;100368.94;;;8.35;42.99
36222;BME280;22266;52.340;4.962;2023-03-14T14:11:58;100373.59;;;8.27;43.11
36222;BME280;22266;52.340;4.962;2023-03-14T14:15:01;100373.06;;;8.16;44.16
36222;BME280;22266;52.340;4.962;2023-03-14T14:17:45;100377.06;;;8.06;45.13
36222;BME280;22266;52.340;4.962;2023-03-14T14:20:36;100391.31;;;8.06;43.77
36222;BME280;22266;52.340;4.962;2023-03-14T14:23:05;100396.69;;;8.06;42.96